createdAt,value
2023-10-26T00:01:46.851Z,15.73
2023-10-26T00:04:49.251Z,12.93
2023-10-26T00:07:52.332Z,14.65
2023-10-26T00:10:54.713Z,12.55
2023-10-26T00:13:57.461Z,14.52
2023-10-26T00:16:59.695Z,11.17
2023-10-26T00:20:02.119Z,10.40
2023-10-26T00:23:06.831Z,11.00
2023-10-26T00:26:09.092Z,11.15
2023-10-26T00:29:12.205Z,8.95
2023-10-26T00:32:14.591Z,10.23
2023-10-26T00:35:17.019Z,7.60
2023-10-26T00:38:19.279Z,10.55
2023-10-26T00:41:21.664Z,8.00
2023-10-26T00:44:24.259Z,8.93
2023-10-26T00:47:27.316Z,7.47
2023-10-26T00:50:29.825Z,10.27
2023-10-26T00:53:33.652Z,8.52
2023-10-26T00:56:37.235Z,7.90
2023-10-26T00:59:40.595Z,8.13
2023-10-26T01:02:43.900Z,8.07
2023-10-26T01:05:47.668Z,10.05
2023-10-26T01:08:50.418Z,10.25
2023-10-26T01:11:52.889Z,12.18
2023-10-26T01:14:55.278Z,11.23
2023-10-26T01:17:57.777Z,10.37
2023-10-26T01:21:00.296Z,12.40
2023-10-26T01:24:03.036Z,11.50
2023-10-26T01:27:06.108Z,14.15
2023-10-26T01:30:08.976Z,11.77
2023-10-26T01:33:11.370Z,10.53
2023-10-26T01:36:13.806Z,12.07
2023-10-26T01:39:17.888Z,10.90
2023-10-26T01:42:20.142Z,10.95
2023-10-26T01:45:22.711Z,12.50
2023-10-26T01:48:25.161Z,10.77
2023-10-26T01:51:27.629Z,10.63
2023-10-26T01:54:30.506Z,11.10
2023-10-26T01:57:33.655Z,10.38
2023-10-26T02:00:36.760Z,10.75
2023-10-26T02:03:39.286Z,10.63
2023-10-26T02:06:41.931Z,9.88
2023-10-26T02:09:44.396Z,10.80
2023-10-26T02:12:46.698Z,10.43
2023-10-26T02:15:49.138Z,8.93
2023-10-26T02:18:51.443Z,10.60
2023-10-26T02:21:53.797Z,10.68
2023-10-26T02:24:56.047Z,11.48
2023-10-26T02:27:58.817Z,11.55
2023-10-26T02:31:02.015Z,11.48
2023-10-26T02:34:04.226Z,10.77
2023-10-26T02:37:06.513Z,11.63
2023-10-26T02:40:12.315Z,13.55
2023-10-26T02:43:14.556Z,12.18
2023-10-26T02:46:17.323Z,15.60
2023-10-26T02:49:19.632Z,12.23
2023-10-26T02:52:21.962Z,11.35
2023-10-26T02:55:25.726Z,11.40
2023-10-26T02:58:27.996Z,11.93
2023-10-26T03:01:35.064Z,11.45
2023-10-26T03:04:38.822Z,10.73
2023-10-26T03:07:41.348Z,12.02
2023-10-26T03:10:44.029Z,10.60
2023-10-26T03:13:46.261Z,10.23
2023-10-26T03:16:49.398Z,12.20
2023-10-26T03:19:51.789Z,11.83
2023-10-26T03:22:54.041Z,14.15
2023-10-26T03:25:57.373Z,10.80
2023-10-26T03:29:00.103Z,10.50
2023-10-26T03:32:03.856Z,11.90
2023-10-26T03:35:06.422Z,11.83
2023-10-26T03:38:09.461Z,11.43
2023-10-26T03:41:12.144Z,14.93
2023-10-26T03:44:14.449Z,13.20
2023-10-26T03:47:18.868Z,11.35
2023-10-26T03:50:21.784Z,11.60
2023-10-26T03:53:24.167Z,10.80
2023-10-26T03:56:26.521Z,10.85
2023-10-26T03:59:28.852Z,10.35
2023-10-26T04:02:31.164Z,11.00
2023-10-26T04:05:34.473Z,11.97
2023-10-26T04:08:38.299Z,11.35
2023-10-26T04:11:43.429Z,10.73
2023-10-26T04:14:46.016Z,12.50
2023-10-26T04:17:48.576Z,12.63
2023-10-26T04:20:50.834Z,13.20
2023-10-26T04:23:53.072Z,13.05
2023-10-26T04:26:55.400Z,12.23
2023-10-26T04:29:57.766Z,12.50
2023-10-26T04:33:00.162Z,12.38
2023-10-26T04:36:04.052Z,12.17
2023-10-26T04:39:06.627Z,11.65
2023-10-26T04:42:09.014Z,14.05
2023-10-26T04:45:11.681Z,12.15
2023-10-26T04:48:14.022Z,11.93
2023-10-26T04:51:16.398Z,12.43
2023-10-26T04:54:18.918Z,14.43
2023-10-26T04:57:21.449Z,12.98
2023-10-26T05:00:23.808Z,13.20
2023-10-26T05:03:26.112Z,12.93
2023-10-26T05:06:28.503Z,13.90
2023-10-26T05:09:31.892Z,11.70
2023-10-26T05:12:34.231Z,13.27
2023-10-26T05:15:36.582Z,10.88
2023-10-26T05:18:38.969Z,11.55
2023-10-26T05:21:41.806Z,11.87
2023-10-26T05:24:45.626Z,12.77
2023-10-26T05:27:47.889Z,14.05
2023-10-26T05:30:50.182Z,15.82
2023-10-26T05:33:52.484Z,14.38
2023-10-26T05:36:54.904Z,14.43
2023-10-26T05:39:57.677Z,13.45
2023-10-26T05:42:59.926Z,12.82
2023-10-26T05:46:04.388Z,15.85
2023-10-26T05:49:06.822Z,13.48
2023-10-26T05:52:09.123Z,13.67
2023-10-26T05:55:11.425Z,13.30
2023-10-26T05:58:13.745Z,15.00
2023-10-26T06:01:16.010Z,15.35
2023-10-26T06:04:19.373Z,14.98
2023-10-26T06:07:21.758Z,11.33
2023-10-26T06:10:23.986Z,13.02
2023-10-26T06:13:26.579Z,14.35
2023-10-26T06:16:29.137Z,15.20
2023-10-26T06:19:33.084Z,13.40
2023-10-26T06:22:35.458Z,14.87
2023-10-26T06:25:39.898Z,14.07
2023-10-26T06:28:42.227Z,15.40
2023-10-26T06:31:45.586Z,15.80
2023-10-26T06:34:47.879Z,17.10
2023-10-26T06:37:50.229Z,16.87
2023-10-26T06:40:52.651Z,16.58
2023-10-26T06:43:57.041Z,18.85
2023-10-26T06:46:59.317Z,15.73
2023-10-26T06:50:01.662Z,18.02
2023-10-26T06:53:03.933Z,16.97
2023-10-26T06:56:13.536Z,15.98
2023-10-26T06:59:15.841Z,17.85
2023-10-26T07:02:18.112Z,18.92
2023-10-26T07:05:20.403Z,17.38
2023-10-26T07:08:22.750Z,19.27
2023-10-26T07:11:25.104Z,19.55
2023-10-26T07:14:27.353Z,16.63
2023-10-26T07:17:29.666Z,17.08
2023-10-26T07:20:32.007Z,17.65
2023-10-26T07:23:37.206Z,17.37
2023-10-26T07:26:39.529Z,15.15
2023-10-26T07:29:42.239Z,18.98
2023-10-26T07:32:44.665Z,13.23
2023-10-26T07:35:51.922Z,15.40
2023-10-26T07:39:45.662Z,12.97
2023-10-26T07:42:16.921Z,16.58
2023-10-26T07:45:19.942Z,16.33
2023-10-26T07:48:22.609Z,14.20
2023-10-26T07:51:25.009Z,14.13
2023-10-26T07:54:27.490Z,15.67
2023-10-26T07:57:30.792Z,14.70
2023-10-26T08:00:33.196Z,14.38
2023-10-26T08:03:35.500Z,13.23
2023-10-26T08:06:37.862Z,15.07
2023-10-26T08:09:40.129Z,13.07
2023-10-26T08:12:42.352Z,12.65
2023-10-26T08:16:11.678Z,12.32
2023-10-26T08:19:07.119Z,12.05
2023-10-26T08:22:10.641Z,13.85
2023-10-26T08:25:13.318Z,12.97
2023-10-26T08:28:19.081Z,12.15
2023-10-26T08:31:21.525Z,14.35
2023-10-26T08:34:24.140Z,13.63
2023-10-26T08:37:28.648Z,13.73
2023-10-26T08:40:31.209Z,12.57
2023-10-26T08:43:34.823Z,11.90
2023-10-26T08:46:37.653Z,12.13
2023-10-26T08:52:45.868Z,11.77
2023-10-26T08:55:49.913Z,13.20
2023-10-26T08:58:59.166Z,9.25
2023-10-26T09:02:01.676Z,9.57
2023-10-26T09:05:05.458Z,8.70
2023-10-26T09:08:20.077Z,10.77
2023-10-26T09:11:27.174Z,10.20
2023-10-26T09:14:29.438Z,11.82
2023-10-26T09:17:33.387Z,8.23
2023-10-26T09:20:35.817Z,10.48
2023-10-26T09:23:38.838Z,8.45
2023-10-26T09:26:41.204Z,7.20
2023-10-26T09:29:43.773Z,8.55
2023-10-26T09:32:47.223Z,8.18
2023-10-26T09:35:49.630Z,8.07
2023-10-26T09:38:52.343Z,9.10
2023-10-26T09:41:55.306Z,8.87
2023-10-26T09:44:57.977Z,7.97
2023-10-26T09:48:01.694Z,10.20
2023-10-26T09:51:05.824Z,6.68
2023-10-26T09:54:09.923Z,6.28
2023-10-26T09:57:17.863Z,7.27
2023-10-26T10:00:30.362Z,7.72
2023-10-26T10:03:44.264Z,6.70
2023-10-26T10:06:59.851Z,6.63
2023-10-26T10:10:02.476Z,7.70
2023-10-26T10:13:05.676Z,6.90
2023-10-26T10:16:48.241Z,7.18
2023-10-26T10:20:15.333Z,6.70
2023-10-26T10:23:30.431Z,7.60
2023-10-26T10:27:11.444Z,6.78
2023-10-26T10:30:13.742Z,6.33
2023-10-26T10:33:23.435Z,6.82
2023-10-26T10:36:26.028Z,5.25
2023-10-26T10:39:28.410Z,6.55
2023-10-26T10:42:31.998Z,5.82
2023-10-26T10:45:37.115Z,5.47
2023-10-26T10:49:09.807Z,5.60
2023-10-26T10:52:16.577Z,5.03
2023-10-26T10:55:25.391Z,4.22
2023-10-26T10:58:37.229Z,4.15
2023-10-26T11:01:39.568Z,5.17
2023-10-26T11:04:59.637Z,3.80
2023-10-26T11:08:09.198Z,3.70
2023-10-26T11:11:28.996Z,3.58
2023-10-26T11:14:31.231Z,3.08
2023-10-26T11:17:33.597Z,3.90
2023-10-26T11:20:47.115Z,3.80
2023-10-26T11:23:52.395Z,2.50
2023-10-26T11:27:07.736Z,3.97
2023-10-26T11:30:10.476Z,3.92
2023-10-26T11:33:29.912Z,3.17
2023-10-26T11:36:32.252Z,3.50
2023-10-26T11:39:34.551Z,3.67
2023-10-26T11:42:53.544Z,3.92
2023-10-26T11:45:55.914Z,3.38
2023-10-26T11:48:58.231Z,4.63
2023-10-26T11:52:01.600Z,3.33
2023-10-26T11:55:04.755Z,2.90
2023-10-26T11:58:07.079Z,3.35
2023-10-26T12:01:09.383Z,2.80
2023-10-26T12:04:12.838Z,2.90
2023-10-26T12:07:15.185Z,3.03
2023-10-26T12:10:19.602Z,2.65
2023-10-26T12:13:21.841Z,2.35
2023-10-26T12:16:24.092Z,2.50
2023-10-26T12:19:26.542Z,2.37
2023-10-26T12:22:28.909Z,2.60
2023-10-26T12:25:31.210Z,3.25
2023-10-26T12:28:34.002Z,3.78
2023-10-26T12:31:36.430Z,2.50
2023-10-26T12:34:38.933Z,3.43
2023-10-26T12:37:41.222Z,3.90
2023-10-26T12:40:43.695Z,2.95
2023-10-26T12:43:45.978Z,3.05
2023-10-26T12:46:52.950Z,2.55
2023-10-26T12:49:55.263Z,2.80
2023-10-26T12:52:57.849Z,3.05
2023-10-26T12:56:00.184Z,2.90
2023-10-26T12:59:02.492Z,3.50
2023-10-26T13:02:05.119Z,2.30
2023-10-26T13:05:07.788Z,2.97
2023-10-26T13:08:10.185Z,2.60
2023-10-26T13:11:15.501Z,2.58
2023-10-26T13:14:17.850Z,3.88
2023-10-26T13:17:20.241Z,3.28
2023-10-26T13:20:24.079Z,3.57
2023-10-26T13:23:26.568Z,3.90
2023-10-26T13:26:28.924Z,2.80
2023-10-26T13:29:31.190Z,2.70
2023-10-26T13:32:33.470Z,2.20
2023-10-26T13:35:35.835Z,2.47
2023-10-26T13:38:38.673Z,2.90
2023-10-26T13:41:41.004Z,2.28
2023-10-26T13:44:46.300Z,2.35
2023-10-26T13:47:48.684Z,3.67
2023-10-26T13:50:57.166Z,2.40
2023-10-26T13:53:59.415Z,3.33
2023-10-26T13:57:01.791Z,3.25
2023-10-26T14:00:08.054Z,3.72
2023-10-26T14:03:14.635Z,4.32
2023-10-26T14:06:16.972Z,3.03
2023-10-26T14:09:19.317Z,3.08
2023-10-26T14:12:21.849Z,3.00
2023-10-26T14:15:24.584Z,3.33
2023-10-26T14:18:26.900Z,3.83
2023-10-26T14:21:29.213Z,4.07
2023-10-26T14:24:32.186Z,3.13
2023-10-26T14:27:34.619Z,3.50
2023-10-26T14:30:37.205Z,4.50
2023-10-26T14:33:39.564Z,3.67
2023-10-26T14:36:41.956Z,4.57
2023-10-26T14:39:45.836Z,4.47
2023-10-26T14:42:48.604Z,4.07
2023-10-26T14:45:51.045Z,4.18
2023-10-26T14:48:53.466Z,4.32
2023-10-26T14:51:55.878Z,4.50
2023-10-26T14:54:58.394Z,5.00
2023-10-26T14:58:00.844Z,5.13
2023-10-26T15:01:04.202Z,4.03
2023-10-26T15:04:08.847Z,4.68
2023-10-26T15:07:11.450Z,5.17
2023-10-26T15:10:25.722Z,6.95
2023-10-26T15:13:30.018Z,4.28
2023-10-26T15:16:32.420Z,4.80
2023-10-26T15:19:35.626Z,5.05
2023-10-26T15:22:38.248Z,6.50
2023-10-26T15:25:40.714Z,6.38
2023-10-26T15:28:43.006Z,7.15
2023-10-26T15:31:48.470Z,6.78
2023-10-26T15:34:51.070Z,7.97
2023-10-26T15:37:53.434Z,7.17
2023-10-26T15:41:06.318Z,7.60
2023-10-26T15:44:09.177Z,7.60
2023-10-26T15:47:17.233Z,6.68
2023-10-26T15:50:50.510Z,7.88
2023-10-26T15:53:53.601Z,8.97
2023-10-26T15:56:56.691Z,8.23
2023-10-26T15:59:59.989Z,12.88
2023-10-26T16:03:02.987Z,12.05
2023-10-26T16:06:14.984Z,11.32
2023-10-26T16:09:18.081Z,11.20
2023-10-26T16:12:23.629Z,9.43
2023-10-26T16:15:26.731Z,9.93
2023-10-26T16:18:29.918Z,11.20
2023-10-26T16:21:33.221Z,9.05
2023-10-26T16:24:36.751Z,9.87
2023-10-26T16:27:39.946Z,9.00
2023-10-26T16:30:43.945Z,11.57
2023-10-26T16:33:47.395Z,10.70
2023-10-26T16:36:53.625Z,11.43
2023-10-26T16:39:57.448Z,10.20
2023-10-26T16:43:02.270Z,11.35
2023-10-26T16:46:07.241Z,10.15
2023-10-26T16:49:10.702Z,10.55
2023-10-26T16:52:14.086Z,9.02
2023-10-26T16:55:18.086Z,10.40
2023-10-26T16:58:21.364Z,11.32
2023-10-26T17:01:24.520Z,9.32
2023-10-26T17:04:27.518Z,9.32
2023-10-26T17:07:30.222Z,10.30
2023-10-26T17:10:33.319Z,9.03
2023-10-26T17:13:36.301Z,9.82
2023-10-26T17:16:39.714Z,7.88
2023-10-26T17:19:46.376Z,9.55
2023-10-26T17:22:49.403Z,10.95
2023-10-26T17:25:52.480Z,11.00
2023-10-26T17:28:58.037Z,9.27
2023-10-26T17:32:03.306Z,9.07
2023-10-26T17:35:07.294Z,11.95
2023-10-26T17:38:11.425Z,10.02
2023-10-26T17:41:17.768Z,10.40
2023-10-26T17:44:21.385Z,9.73
2023-10-26T17:47:26.417Z,11.10
2023-10-26T17:50:29.734Z,42.90
2023-10-26T17:53:35.479Z,13.93
2023-10-26T17:56:40.051Z,11.30
2023-10-26T17:59:45.097Z,11.95
2023-10-26T18:02:48.612Z,12.88
2023-10-26T18:05:56.060Z,10.43
2023-10-26T18:08:59.344Z,11.75
2023-10-26T18:12:02.786Z,13.83
2023-10-26T18:15:10.001Z,14.57
2023-10-26T18:18:14.211Z,15.32
2023-10-26T18:21:17.911Z,14.50
2023-10-26T18:24:21.914Z,13.15
2023-10-26T18:27:26.884Z,14.03
2023-10-26T18:30:30.026Z,16.08
2023-10-26T18:33:33.215Z,14.32
2023-10-26T18:36:40.314Z,13.30
2023-10-26T18:39:45.966Z,15.55
2023-10-26T18:42:51.720Z,12.73
2023-10-26T18:45:59.209Z,12.95
2023-10-26T18:49:08.006Z,15.88
2023-10-26T18:52:11.179Z,13.43
2023-10-26T18:55:14.427Z,13.55
2023-10-26T18:58:18.842Z,14.00
2023-10-26T19:01:27.004Z,13.77
2023-10-26T19:04:33.596Z,13.70
2023-10-26T19:07:38.196Z,15.55
2023-10-26T19:10:44.101Z,15.63
2023-10-26T19:13:48.216Z,13.53
2023-10-26T19:16:54.795Z,15.18
2023-10-26T19:19:59.490Z,15.90
2023-10-26T19:23:04.621Z,16.70
2023-10-26T19:26:09.048Z,14.00
2023-10-26T19:29:15.123Z,16.00
2023-10-26T19:32:20.663Z,15.55
2023-10-26T19:35:25.903Z,14.60
2023-10-26T19:38:30.431Z,16.48
2023-10-26T19:41:39.982Z,15.13
2023-10-26T19:44:47.064Z,15.20
2023-10-26T19:47:54.000Z,18.08
2023-10-26T19:51:01.445Z,14.30
2023-10-26T19:54:07.909Z,17.83
2023-10-26T19:57:17.305Z,15.50
2023-10-26T20:00:21.923Z,15.07
2023-10-26T20:03:25.452Z,17.02
2023-10-26T20:06:28.946Z,15.15
2023-10-26T20:09:32.495Z,15.68
2023-10-26T20:12:37.813Z,15.15
2023-10-26T20:15:44.775Z,13.03
2023-10-26T20:18:49.762Z,19.08
2023-10-26T20:21:53.997Z,16.95
2023-10-26T20:24:58.437Z,15.88
2023-10-26T20:28:01.878Z,16.30
2023-10-26T20:31:05.432Z,12.83
2023-10-26T20:34:19.077Z,17.00
2023-10-26T20:37:22.764Z,15.43
2023-10-26T20:40:25.823Z,14.32
2023-10-26T20:43:28.732Z,16.08
2023-10-26T20:46:31.156Z,16.07
2023-10-26T20:49:34.135Z,14.32
2023-10-26T20:52:37.124Z,17.13
2023-10-26T20:55:40.115Z,14.68
2023-10-26T20:58:43.422Z,14.48
2023-10-26T21:01:46.433Z,14.90
2023-10-26T21:04:49.401Z,17.38
2023-10-26T21:07:52.400Z,16.17
2023-10-26T21:10:55.598Z,18.50
2023-10-26T21:13:58.047Z,14.98
2023-10-26T21:17:00.452Z,15.77
2023-10-26T21:20:08.006Z,16.30
2023-10-26T21:23:10.378Z,17.80
2023-10-26T21:26:13.115Z,18.38
2023-10-26T21:29:15.522Z,17.23
2023-10-26T21:32:18.293Z,18.20
2023-10-26T21:35:20.605Z,21.48
2023-10-26T21:38:23.004Z,20.67
2023-10-26T21:41:25.272Z,19.88
2023-10-26T21:44:27.761Z,20.30
2023-10-26T21:47:29.999Z,17.97
2023-10-26T21:50:33.408Z,18.95
2023-10-26T21:53:35.729Z,18.85
2023-10-26T21:56:37.988Z,17.13
2023-10-26T21:59:40.314Z,20.65
2023-10-26T22:02:43.309Z,18.57
2023-10-26T22:05:47.732Z,20.00
2023-10-26T22:08:51.028Z,21.48
2023-10-26T22:11:54.122Z,19.90
2023-10-26T22:14:58.259Z,21.42
2023-10-26T22:18:00.741Z,18.00
2023-10-26T22:21:04.433Z,22.27
2023-10-26T22:24:07.926Z,19.20
2023-10-26T22:27:10.192Z,20.90
2023-10-26T22:30:13.564Z,17.75
2023-10-26T22:33:15.802Z,19.77
2023-10-26T22:36:18.023Z,17.45
2023-10-26T22:39:20.311Z,20.60
2023-10-26T22:42:24.090Z,20.90
2023-10-26T22:45:26.355Z,20.25
2023-10-26T22:48:28.644Z,20.47
2023-10-26T22:51:31.074Z,17.27
2023-10-26T22:54:33.311Z,19.27
2023-10-26T22:57:35.629Z,21.58
2023-10-26T23:00:37.920Z,20.23
2023-10-26T23:03:40.216Z,21.97
2023-10-26T23:06:42.760Z,21.73
2023-10-26T23:09:45.137Z,22.25
2023-10-26T23:12:48.154Z,21.33
2023-10-26T23:15:51.146Z,20.02
2023-10-26T23:18:54.219Z,17.90
2023-10-26T23:21:57.462Z,20.45
2023-10-26T23:25:00.565Z,18.33
2023-10-26T23:28:03.726Z,19.38
2023-10-26T23:31:11.648Z,21.92
2023-10-26T23:34:14.799Z,21.17
2023-10-26T23:37:18.040Z,21.75
2023-10-26T23:40:20.579Z,21.15
2023-10-26T23:43:22.875Z,22.58
2023-10-26T23:46:25.274Z,17.40
2023-10-26T23:49:27.712Z,24.47
2023-10-26T23:52:29.983Z,22.15
2023-10-26T23:55:32.220Z,21.92
2023-10-26T23:58:34.595Z,19.80
